Rockerville, SD

12:54 AM MDT on March 30, 2015 (GMT -0600)
Ellsworth Air Force Base | | Change Station
CLOSE
Current Station
Airport
Location: Ellsworth AFB,
Elevation: 3278 ft
Nearby Weather Stations

Elev 3278 ft 44.15 °N, 103.10 °W | Updated 56 minutes ago

Partly Cloudy
Partly Cloudy
48 °F
Feels Like 48 °F
N
6
Wind Variable Wind from SSW

Today
High -- | Low -- °F
--% Chance of Precip.
Yesterday
High -- | Low -- °F
Precip. -- in
6:37 AM 7:17 PM
Waxing Gibbous, 77% visible
Pressure 30.03 in
Visibility 10.0 miles
Clouds Clear
Dew Point 26 °F
Humidity 42%
Rainfall 0.00 in
Snow Depth Not available.
UV 0 out of 12
Pollen 8.60 out of 12
Air Quality Not available.
Flu Activity Not available.
METAR KRCA 300558Z AUTO 20005KT 10SM CLR 09/M03 A3002 RMK AO2 SLP167 T00901032 10155 20062 58008 $

More Conditions Fewer Conditions

Pressure 30.03 in
Visibility 10.0 miles
Clouds Clear
Dew Point 26 °F
Humidity 42%
Rainfall 0.00 in
Snow Depth Not available.
UV 0 out of 12
Pollen 8.60 out of 12
Air Quality Not available.
Flu Activity Not available.
METAR KRCA 300558Z AUTO 20005KT 10SM CLR 09/M03 A3002 RMK AO2 SLP167 T00901032 10155 20062 58008 $

More Conditions Fewer Conditions

10-Day Weather Forecast

Almanac

Astronomy

Mar. 30, 2015 Rise Set
Actual Time
Civil Twilight
Nautical Twilight
Astronomical Twilight
Moon
Length of Visible Light
Length of Day
Tomorrow will be .
, % of the Moon is Illuminated

Today's Extremes

State Highs State Lows

Community

WunderPhotos

Upload Photos

1,809,439 photos uploaded!

WunderBlogs® & News

Nearby

Air Quality

  Air Quality AQ Index Pollutant
Not available.

Snow Depth

Station Depth Elevation

Earthquake Activity

City Distance Mag. Time & Date
Minimum magnitude displayed is 2.5.

Coastal Water Temperatures

Place Temperature

Stations

Nearby Weather Stations

Station Location Temp. Windchill Dew Point Humidity Wind Precip. Elev Updated Type